createdAt,value
2022-09-18T00:01:33.024Z,11.30
2022-09-18T00:04:06.731Z,11.30
2022-09-18T00:06:39.411Z,11.30
2022-09-18T00:09:14.273Z,11.30
2022-09-18T00:11:44.678Z,11.20
2022-09-18T00:14:15.281Z,11.20
2022-09-18T00:16:43.321Z,11.20
2022-09-18T00:19:11.039Z,11.20
2022-09-18T00:21:42.002Z,11.20
2022-09-18T00:24:09.485Z,11.20
2022-09-18T00:26:37.391Z,11.20
2022-09-18T00:29:05.528Z,11.10
2022-09-18T00:31:35.297Z,11.10
2022-09-18T00:34:05.968Z,11.20
2022-09-18T00:36:35.357Z,11.20
2022-09-18T00:39:03.430Z,11.20
2022-09-18T00:41:40.271Z,11.20
2022-09-18T00:44:45.868Z,11.20
2022-09-18T00:47:32.641Z,11.20
2022-09-18T00:50:06.007Z,11.20
2022-09-18T00:52:56.759Z,11.30
2022-09-18T00:55:32.469Z,11.30
2022-09-18T00:58:02.227Z,11.30
2022-09-18T01:00:31.411Z,11.40
2022-09-18T01:03:04.026Z,11.40
2022-09-18T01:05:53.540Z,11.40
2022-09-18T01:09:00.544Z,11.40
2022-09-18T01:11:41.340Z,11.40
2022-09-18T01:14:18.963Z,11.40
2022-09-18T01:17:13.311Z,11.30
2022-09-18T01:20:20.491Z,11.30
2022-09-18T01:22:51.029Z,11.30
2022-09-18T01:25:31.031Z,11.30
2022-09-18T01:28:23.772Z,11.30
2022-09-18T01:30:57.302Z,11.30
2022-09-18T01:33:36.039Z,11.30
2022-09-18T01:36:07.407Z,11.40
2022-09-18T01:38:49.764Z,11.40
2022-09-18T01:41:29.508Z,11.40
2022-09-18T01:44:03.103Z,11.40
2022-09-18T01:46:31.424Z,11.50
2022-09-18T01:49:04.656Z,11.50
2022-09-18T01:51:57.008Z,11.50
2022-09-18T01:54:29.519Z,11.50
2022-09-18T01:57:02.524Z,11.60
2022-09-18T02:00:09.551Z,11.60
2022-09-18T02:02:58.370Z,11.60
2022-09-18T02:05:39.496Z,11.60
2022-09-18T02:08:18.773Z,11.70
2022-09-18T02:10:59.831Z,11.70
2022-09-18T02:13:34.246Z,11.70
2022-09-18T02:16:05.971Z,11.70
2022-09-18T02:18:44.715Z,11.70
2022-09-18T02:21:16.216Z,11.70
2022-09-18T02:23:45.289Z,11.70
2022-09-18T02:26:15.298Z,11.80
2022-09-18T02:28:43.665Z,11.80
2022-09-18T02:31:12.935Z,11.80
2022-09-18T02:33:40.640Z,11.80
2022-09-18T02:36:29.940Z,11.80
2022-09-18T02:39:09.599Z,11.80
2022-09-18T02:42:15.091Z,11.80
2022-09-18T02:45:03.080Z,11.80
2022-09-18T02:47:36.254Z,11.90
2022-09-18T02:50:12.771Z,11.80
2022-09-18T02:53:04.154Z,11.80
2022-09-18T02:55:38.324Z,11.80
2022-09-18T02:58:13.368Z,11.80
2022-09-18T03:00:43.928Z,11.80
2022-09-18T03:03:17.900Z,11.80
2022-09-18T03:05:54.311Z,11.80
2022-09-18T03:08:22.331Z,11.90
2022-09-18T03:10:49.539Z,11.90
2022-09-18T03:13:16.928Z,11.80
2022-09-18T03:15:44.332Z,11.90
2022-09-18T03:18:11.871Z,11.90
2022-09-18T03:20:42.528Z,11.90
2022-09-18T03:23:10.761Z,11.90
2022-09-18T03:25:39.424Z,11.90
2022-09-18T03:28:07.010Z,11.90
2022-09-18T03:30:41.440Z,11.80
2022-09-18T03:33:09.021Z,11.90
2022-09-18T03:35:36.513Z,11.90
2022-09-18T03:38:04.190Z,11.90
2022-09-18T03:40:32.125Z,11.90
2022-09-18T03:43:04.302Z,11.90
2022-09-18T03:45:31.973Z,11.90
2022-09-18T03:48:00.426Z,11.90
2022-09-18T03:50:28.031Z,11.90
2022-09-18T03:52:56.150Z,11.90
2022-09-18T03:55:36.987Z,11.90
2022-09-18T03:58:24.502Z,11.90
2022-09-18T04:01:16.043Z,12.00
2022-09-18T04:04:02.236Z,12.00
2022-09-18T04:07:05.067Z,12.00
2022-09-18T04:10:10.643Z,12.00
2022-09-18T04:12:39.707Z,12.00
2022-09-18T04:15:19.151Z,11.90
2022-09-18T04:17:48.041Z,11.90
2022-09-18T04:20:16.999Z,11.90
2022-09-18T04:22:44.515Z,11.80
2022-09-18T04:25:12.010Z,11.80
2022-09-18T04:27:40.167Z,11.90
2022-09-18T04:30:09.601Z,11.90
2022-09-18T04:32:39.367Z,11.90
2022-09-18T04:35:07.799Z,11.90
2022-09-18T04:37:35.300Z,11.90
2022-09-18T04:40:04.566Z,11.90
2022-09-18T04:42:32.303Z,11.90
2022-09-18T04:45:01.213Z,11.90
2022-09-18T04:47:28.697Z,11.90
2022-09-18T04:49:56.049Z,11.80
2022-09-18T04:52:24.993Z,11.90
2022-09-18T04:54:52.814Z,11.80
2022-09-18T04:57:20.212Z,11.90
2022-09-18T04:59:47.804Z,11.80
2022-09-18T05:02:15.672Z,11.80
2022-09-18T05:04:43.226Z,11.80
2022-09-18T05:07:22.813Z,11.80
2022-09-18T05:09:51.560Z,11.90
2022-09-18T05:12:19.209Z,11.80
2022-09-18T05:14:46.452Z,11.80
2022-09-18T05:17:16.717Z,11.90
2022-09-18T05:19:59.390Z,11.90
2022-09-18T05:22:30.863Z,12.00
2022-09-18T05:24:58.141Z,12.00
2022-09-18T05:27:27.008Z,12.00
2022-09-18T05:29:55.348Z,12.10
2022-09-18T05:32:28.216Z,12.10
2022-09-18T05:34:56.338Z,12.20
2022-09-18T05:37:24.276Z,12.20
2022-09-18T05:39:54.719Z,12.20
2022-09-18T05:42:22.224Z,12.30
2022-09-18T05:44:50.184Z,12.30
2022-09-18T05:47:22.340Z,12.40
2022-09-18T05:49:49.622Z,12.40
2022-09-18T05:52:16.822Z,12.40
2022-09-18T05:54:44.281Z,12.50
2022-09-18T05:57:11.612Z,12.50
2022-09-18T05:59:38.804Z,12.60
2022-09-18T06:02:06.353Z,12.60
2022-09-18T06:04:57.072Z,12.60
2022-09-18T06:07:24.522Z,12.70
2022-09-18T06:09:52.264Z,12.90
2022-09-18T06:12:19.435Z,13.10
2022-09-18T06:14:46.899Z,13.40
2022-09-18T06:17:15.468Z,13.70
2022-09-18T06:19:42.661Z,13.90
2022-09-18T06:22:10.715Z,14.10
2022-09-18T06:24:37.971Z,14.20
2022-09-18T06:27:11.076Z,14.30
2022-09-18T06:29:39.451Z,14.30
2022-09-18T06:32:11.198Z,14.50
2022-09-18T06:34:40.057Z,14.60
2022-09-18T06:37:10.270Z,14.70
2022-09-18T06:39:43.837Z,14.70
2022-09-18T06:42:20.489Z,14.80
2022-09-18T06:45:13.078Z,14.90
2022-09-18T06:47:42.419Z,14.90
2022-09-18T06:50:10.151Z,14.90
2022-09-18T06:52:38.035Z,15.00
2022-09-18T06:55:06.904Z,15.10
2022-09-18T06:57:34.951Z,15.20
2022-09-18T07:00:04.565Z,15.20
2022-09-18T07:02:37.944Z,15.30
2022-09-18T07:05:30.749Z,15.40
2022-09-18T07:07:59.374Z,15.50
2022-09-18T07:10:29.175Z,15.60
2022-09-18T07:13:02.173Z,15.70
2022-09-18T07:15:31.832Z,15.90
2022-09-18T07:18:01.319Z,16.00
2022-09-18T07:20:30.637Z,16.30
2022-09-18T07:23:01.014Z,16.60
2022-09-18T07:25:40.167Z,17.00
2022-09-18T07:28:10.296Z,17.50
2022-09-18T07:30:45.161Z,18.00
2022-09-18T07:33:12.817Z,18.60
2022-09-18T07:35:46.590Z,19.20
2022-09-18T07:38:15.479Z,19.70
2022-09-18T07:40:53.304Z,20.10
2022-09-18T07:43:29.431Z,20.20
2022-09-18T07:45:56.834Z,20.10
2022-09-18T07:48:24.471Z,19.90
2022-09-18T07:50:58.390Z,19.60
2022-09-18T07:53:26.690Z,19.20
2022-09-18T07:55:58.033Z,18.80
2022-09-18T07:58:26.938Z,18.50
2022-09-18T08:01:05.215Z,18.20
2022-09-18T08:03:41.410Z,17.90
2022-09-18T08:06:12.683Z,17.50
2022-09-18T08:09:00.531Z,17.10
2022-09-18T08:11:57.139Z,16.90
2022-09-18T08:15:02.909Z,16.70
2022-09-18T08:17:50.399Z,16.40
2022-09-18T08:20:35.639Z,16.30
2022-09-18T08:23:19.874Z,16.10
2022-09-18T08:25:47.575Z,15.90
2022-09-18T08:28:15.173Z,15.80
2022-09-18T08:30:49.303Z,15.70
2022-09-18T08:33:17.955Z,15.70
2022-09-18T08:35:45.397Z,15.60
2022-09-18T08:38:23.780Z,15.50
2022-09-18T08:41:21.767Z,15.40
2022-09-18T08:44:01.400Z,15.30
2022-09-18T08:46:38.213Z,15.30
2022-09-18T08:49:29.631Z,15.20
2022-09-18T08:52:14.816Z,15.10
2022-09-18T08:55:04.942Z,15.10
2022-09-18T08:58:37.108Z,15.00
2022-09-18T09:01:12.451Z,14.90
2022-09-18T09:04:22.835Z,14.80
2022-09-18T09:06:50.324Z,14.70
2022-09-18T09:09:32.388Z,14.70
2022-09-18T09:12:12.597Z,14.60
2022-09-18T09:14:57.104Z,14.60
2022-09-18T09:17:40.103Z,14.60
2022-09-18T09:20:24.194Z,14.50
2022-09-18T09:23:14.060Z,14.50
2022-09-18T09:26:01.322Z,14.50
2022-09-18T09:29:01.079Z,14.40
2022-09-18T09:31:51.552Z,14.40
2022-09-18T09:34:53.018Z,14.50
2022-09-18T09:37:41.468Z,14.50
2022-09-18T09:40:19.058Z,14.50
2022-09-18T09:43:00.902Z,14.50
2022-09-18T09:45:46.321Z,14.50
2022-09-18T09:48:27.824Z,14.60
2022-09-18T09:51:02.565Z,14.60
2022-09-18T09:53:31.008Z,14.60
2022-09-18T09:56:25.116Z,14.60
2022-09-18T09:59:08.459Z,14.70
2022-09-18T10:02:00.247Z,14.70
2022-09-18T10:05:13.212Z,14.70
2022-09-18T10:07:51.476Z,14.70
2022-09-18T10:10:42.157Z,14.70
2022-09-18T10:13:25.630Z,14.70
2022-09-18T10:16:02.246Z,14.60
2022-09-18T10:18:35.093Z,14.60
2022-09-18T10:21:08.015Z,14.50
2022-09-18T10:23:39.538Z,14.50
2022-09-18T10:26:22.140Z,14.60
2022-09-18T10:28:49.420Z,14.50
2022-09-18T10:31:18.191Z,14.50
2022-09-18T10:33:52.946Z,14.50
2022-09-18T10:36:36.923Z,14.60
2022-09-18T10:39:31.381Z,14.60
2022-09-18T10:42:14.287Z,14.60
2022-09-18T10:44:48.647Z,14.60
2022-09-18T10:47:28.772Z,14.60
2022-09-18T10:50:06.494Z,14.70
2022-09-18T10:52:41.321Z,14.70
2022-09-18T10:55:25.936Z,14.70
2022-09-18T10:57:58.019Z,14.80
2022-09-18T11:00:29.342Z,14.80
2022-09-18T11:03:21.343Z,14.80
2022-09-18T11:05:55.456Z,14.80
2022-09-18T11:08:37.172Z,14.80
2022-09-18T11:11:09.042Z,14.80
2022-09-18T11:14:04.287Z,14.80
2022-09-18T11:16:45.420Z,14.80
2022-09-18T11:19:33.127Z,14.80
2022-09-18T11:22:26.619Z,14.80
2022-09-18T11:25:08.635Z,14.80
2022-09-18T11:27:55.680Z,14.80
2022-09-18T11:30:34.144Z,14.80
2022-09-18T11:33:31.870Z,14.80
2022-09-18T11:36:06.004Z,14.80
2022-09-18T11:38:40.284Z,14.70
2022-09-18T11:41:10.319Z,14.70
2022-09-18T11:43:44.092Z,14.70
2022-09-18T11:46:37.458Z,14.60
2022-09-18T11:49:14.011Z,14.60
2022-09-18T11:51:49.606Z,14.60
2022-09-18T11:54:32.193Z,14.60
2022-09-18T11:57:04.960Z,14.60
2022-09-18T11:59:42.978Z,14.60
2022-09-18T12:02:47.603Z,14.60
2022-09-18T12:05:44.139Z,14.70
2022-09-18T12:08:54.431Z,14.70
2022-09-18T12:11:39.400Z,14.80
2022-09-18T12:14:32.338Z,14.80
2022-09-18T12:17:25.861Z,14.90
2022-09-18T12:20:00.844Z,14.90
2022-09-18T12:22:56.605Z,15.00
2022-09-18T12:25:47.629Z,15.00
2022-09-18T12:28:59.567Z,15.00
2022-09-18T12:31:57.798Z,15.00
2022-09-18T12:34:40.947Z,15.10
2022-09-18T12:37:31.351Z,15.10
2022-09-18T12:40:22.708Z,15.10
2022-09-18T12:43:31.896Z,15.20
2022-09-18T12:46:26.642Z,15.20
2022-09-18T12:49:19.482Z,15.20
2022-09-18T12:52:03.477Z,15.20
2022-09-18T12:54:56.210Z,15.20
2022-09-18T12:57:47.620Z,15.20
2022-09-18T13:00:16.394Z,15.20
2022-09-18T13:03:09.062Z,15.10
2022-09-18T13:05:54.345Z,15.10
2022-09-18T13:08:29.646Z,15.10
2022-09-18T13:11:13.344Z,15.10
2022-09-18T13:13:54.528Z,15.10
2022-09-18T13:16:52.439Z,15.00
2022-09-18T13:19:31.494Z,15.00
2022-09-18T13:22:04.503Z,15.00
2022-09-18T13:24:35.453Z,14.90
2022-09-18T13:27:06.722Z,14.90
2022-09-18T13:29:52.413Z,14.90
2022-09-18T13:32:37.904Z,14.80
2022-09-18T13:35:25.172Z,14.80
2022-09-18T13:38:19.919Z,14.80
2022-09-18T13:40:56.941Z,14.80
2022-09-18T13:43:53.659Z,14.80
2022-09-18T13:46:37.963Z,14.80
2022-09-18T13:49:39.690Z,14.70
2022-09-18T13:52:34.880Z,14.70
2022-09-18T13:55:11.275Z,14.70
2022-09-18T13:57:39.904Z,14.70
2022-09-18T14:00:19.170Z,14.60
2022-09-18T14:03:05.896Z,14.60
2022-09-18T14:05:36.310Z,14.60
2022-09-18T14:08:22.462Z,14.60
2022-09-18T14:11:17.241Z,14.50
2022-09-18T14:13:54.552Z,14.50
2022-09-18T14:16:23.805Z,14.40
2022-09-18T14:19:31.768Z,14.30
2022-09-18T14:22:00.891Z,14.30
2022-09-18T14:24:55.795Z,14.20
2022-09-18T14:27:36.536Z,14.20
2022-09-18T14:30:29.174Z,14.20
2022-09-18T14:33:00.056Z,14.20
2022-09-18T14:35:43.663Z,14.10
2022-09-18T14:38:26.476Z,14.20
2022-09-18T14:41:08.996Z,14.10
2022-09-18T14:43:46.990Z,14.20
2022-09-18T14:46:23.996Z,14.20
2022-09-18T14:48:51.812Z,14.20
2022-09-18T14:51:22.436Z,14.30
2022-09-18T14:53:52.731Z,14.30
2022-09-18T14:56:29.179Z,14.30
2022-09-18T14:59:00.234Z,14.30
2022-09-18T15:01:33.354Z,14.30
2022-09-18T15:04:03.882Z,14.30
2022-09-18T15:06:40.898Z,14.30
2022-09-18T15:09:12.835Z,14.30
2022-09-18T15:12:04.032Z,14.30
2022-09-18T15:14:44.059Z,14.30
2022-09-18T15:17:22.695Z,14.30
2022-09-18T15:20:08.907Z,14.30
2022-09-18T15:22:36.094Z,14.30
2022-09-18T15:25:04.009Z,14.20
2022-09-18T15:27:31.960Z,14.20
2022-09-18T15:30:06.627Z,14.20
2022-09-18T15:32:38.867Z,14.10
2022-09-18T15:35:08.673Z,14.10
2022-09-18T15:37:38.488Z,14.10
2022-09-18T15:40:09.289Z,14.00
2022-09-18T15:42:50.664Z,14.00
2022-09-18T15:45:21.508Z,14.00
2022-09-18T15:47:49.787Z,14.00
2022-09-18T15:50:16.949Z,13.90
2022-09-18T15:53:01.385Z,13.90
2022-09-18T15:55:33.300Z,13.90
2022-09-18T15:58:06.013Z,13.90
2022-09-18T16:00:37.437Z,13.80
2022-09-18T16:03:07.618Z,13.80
2022-09-18T16:05:37.919Z,13.70
2022-09-18T16:08:18.458Z,13.70
2022-09-18T16:10:51.962Z,13.70
2022-09-18T16:13:22.430Z,13.70
2022-09-18T16:16:12.223Z,13.70
2022-09-18T16:18:55.540Z,13.70
2022-09-18T16:21:25.885Z,13.60
2022-09-18T16:24:03.519Z,13.60
2022-09-18T16:26:36.211Z,13.60
2022-09-18T16:29:21.897Z,13.50
2022-09-18T16:31:49.306Z,13.50
2022-09-18T16:34:28.075Z,13.50
2022-09-18T16:36:55.966Z,13.40
2022-09-18T16:39:26.462Z,13.40
2022-09-18T16:41:53.902Z,13.40
2022-09-18T16:44:21.492Z,13.30
2022-09-18T16:47:04.318Z,13.30
2022-09-18T16:49:38.307Z,13.30
2022-09-18T16:52:06.191Z,13.20
2022-09-18T16:54:33.427Z,13.20
2022-09-18T16:57:19.774Z,13.20
2022-09-18T16:59:48.209Z,13.10
2022-09-18T17:02:22.349Z,13.10
2022-09-18T17:04:51.736Z,13.00
2022-09-18T17:07:18.930Z,13.00
2022-09-18T17:09:46.179Z,13.00
2022-09-18T17:12:13.611Z,13.00
2022-09-18T17:14:41.284Z,12.90
2022-09-18T17:17:08.546Z,12.90
2022-09-18T17:19:36.735Z,12.90
2022-09-18T17:22:03.941Z,12.80
2022-09-18T17:24:31.316Z,12.80
2022-09-18T17:26:58.542Z,12.80
2022-09-18T17:29:26.470Z,12.80
2022-09-18T17:31:54.105Z,12.70
2022-09-18T17:34:22.009Z,12.70
2022-09-18T17:36:49.813Z,12.70
2022-09-18T17:39:17.607Z,12.70
2022-09-18T17:41:45.712Z,12.70
2022-09-18T17:44:13.355Z,12.70
2022-09-18T17:46:41.005Z,12.60
2022-09-18T17:49:08.431Z,12.60
2022-09-18T17:51:36.159Z,12.60
2022-09-18T17:54:04.916Z,12.60
2022-09-18T17:56:33.721Z,12.60
2022-09-18T17:59:05.469Z,12.60
2022-09-18T18:01:37.493Z,12.60
2022-09-18T18:04:06.222Z,12.50
2022-09-18T18:06:35.243Z,12.50
2022-09-18T18:09:05.146Z,12.50
2022-09-18T18:11:33.400Z,12.50
2022-09-18T18:14:00.931Z,12.50
2022-09-18T18:16:30.900Z,12.50
2022-09-18T18:19:01.193Z,12.50
2022-09-18T18:21:30.147Z,12.50
2022-09-18T18:24:02.072Z,12.50
2022-09-18T18:26:29.860Z,12.50
2022-09-18T18:28:57.388Z,12.50
2022-09-18T18:31:25.857Z,12.50
2022-09-18T18:33:54.964Z,12.50
2022-09-18T18:36:31.403Z,12.50
2022-09-18T18:39:00.823Z,12.50
2022-09-18T18:41:29.844Z,12.50
2022-09-18T18:44:01.845Z,12.50
2022-09-18T18:46:33.416Z,12.40
2022-09-18T18:49:02.568Z,12.40
2022-09-18T18:51:40.459Z,12.40
2022-09-18T18:54:08.331Z,12.40
2022-09-18T18:56:40.499Z,12.40
2022-09-18T18:59:11.791Z,12.40
2022-09-18T19:01:39.886Z,12.30
2022-09-18T19:04:11.053Z,12.20
2022-09-18T19:06:40.678Z,12.20
2022-09-18T19:09:19.322Z,12.20
2022-09-18T19:11:49.866Z,12.20
2022-09-18T19:14:22.855Z,12.20
2022-09-18T19:16:51.983Z,12.20
2022-09-18T19:19:25.539Z,12.10
2022-09-18T19:21:54.682Z,12.10
2022-09-18T19:24:22.410Z,12.10
2022-09-18T19:26:50.078Z,12.10
2022-09-18T19:29:19.231Z,12.10
2022-09-18T19:31:48.115Z,12.10
2022-09-18T19:34:19.027Z,12.10
2022-09-18T19:36:49.923Z,12.10
2022-09-18T19:39:20.715Z,12.00
2022-09-18T19:42:06.615Z,12.00
2022-09-18T19:44:38.446Z,12.00
2022-09-18T19:47:26.433Z,11.90
2022-09-18T19:49:55.351Z,11.90
2022-09-18T19:52:25.364Z,11.80
2022-09-18T19:54:54.441Z,11.80
2022-09-18T19:57:23.638Z,11.80
2022-09-18T19:59:55.648Z,11.80
2022-09-18T20:02:24.201Z,11.80
2022-09-18T20:04:51.437Z,11.80
2022-09-18T20:07:18.967Z,11.70
2022-09-18T20:09:46.226Z,11.70
2022-09-18T20:12:13.871Z,11.70
2022-09-18T20:14:41.171Z,11.60
2022-09-18T20:17:09.870Z,11.60
2022-09-18T20:19:37.141Z,11.60
2022-09-18T20:22:05.067Z,11.50
2022-09-18T20:24:32.878Z,11.50
2022-09-18T20:27:01.188Z,11.50
2022-09-18T20:29:29.112Z,11.50
2022-09-18T20:31:57.978Z,11.50
2022-09-18T20:34:25.659Z,11.40
2022-09-18T20:36:54.762Z,11.40
2022-09-18T20:39:22.591Z,11.40
2022-09-18T20:41:51.103Z,11.40
2022-09-18T20:44:19.015Z,11.40
2022-09-18T20:46:46.508Z,11.40
2022-09-18T20:49:17.417Z,11.30
2022-09-18T20:51:45.918Z,11.40
2022-09-18T20:54:14.983Z,11.30
2022-09-18T20:56:44.266Z,11.30
2022-09-18T20:59:14.396Z,11.30
2022-09-18T21:01:42.362Z,11.30
2022-09-18T21:04:16.924Z,11.30
2022-09-18T21:06:47.363Z,11.30
2022-09-18T21:09:15.578Z,11.30
2022-09-18T21:11:44.675Z,11.30
2022-09-18T21:14:15.830Z,11.30
2022-09-18T21:16:43.906Z,11.30
2022-09-18T21:19:14.199Z,11.30
2022-09-18T21:21:42.181Z,11.30
2022-09-18T21:24:10.190Z,11.30
2022-09-18T21:26:40.162Z,11.30
2022-09-18T21:29:20.792Z,11.30
2022-09-18T21:31:51.262Z,11.30
2022-09-18T21:34:24.295Z,11.30
2022-09-18T21:36:54.339Z,11.30
2022-09-18T21:39:22.518Z,11.30
2022-09-18T21:41:53.164Z,11.20
2022-09-18T21:44:24.697Z,11.30
2022-09-18T21:46:53.500Z,11.30
2022-09-18T21:49:22.617Z,11.30
2022-09-18T21:51:53.343Z,11.30
2022-09-18T21:54:21.804Z,11.30
2022-09-18T21:56:51.809Z,11.30
2022-09-18T21:59:20.802Z,11.20
2022-09-18T22:01:50.153Z,11.20
2022-09-18T22:04:17.667Z,11.20
2022-09-18T22:06:46.975Z,11.20
2022-09-18T22:09:24.858Z,11.20
2022-09-18T22:11:53.464Z,11.10
2022-09-18T22:14:29.713Z,11.10
2022-09-18T22:16:58.208Z,11.10
2022-09-18T22:19:25.878Z,11.10
2022-09-18T22:21:53.754Z,11.00
2022-09-18T22:24:23.616Z,11.00
2022-09-18T22:26:59.570Z,11.00
2022-09-18T22:29:30.019Z,11.00
2022-09-18T22:31:59.264Z,11.00
2022-09-18T22:34:29.865Z,11.00
2022-09-18T22:36:59.402Z,11.00
2022-09-18T22:39:27.600Z,11.00
2022-09-18T22:41:55.342Z,11.00
2022-09-18T22:44:23.066Z,11.00
2022-09-18T22:46:52.381Z,11.00
2022-09-18T22:49:21.843Z,11.00
2022-09-18T22:51:50.500Z,11.00
2022-09-18T22:54:23.860Z,11.00
2022-09-18T22:56:52.342Z,11.00
2022-09-18T22:59:21.992Z,11.00
2022-09-18T23:01:58.461Z,11.00
2022-09-18T23:04:29.138Z,11.00
2022-09-18T23:06:59.079Z,11.00
2022-09-18T23:09:27.447Z,11.00
2022-09-18T23:11:56.267Z,11.10
2022-09-18T23:14:27.564Z,11.00
2022-09-18T23:16:56.349Z,11.10
2022-09-18T23:19:33.292Z,11.00
2022-09-18T23:22:01.324Z,11.00
2022-09-18T23:24:28.829Z,11.00
2022-09-18T23:26:58.078Z,11.00
2022-09-18T23:29:27.375Z,11.00
2022-09-18T23:31:57.569Z,11.00
2022-09-18T23:34:29.495Z,11.00
2022-09-18T23:36:58.463Z,11.00
2022-09-18T23:39:33.891Z,11.00
2022-09-18T23:42:02.911Z,10.90
2022-09-18T23:44:34.399Z,10.90
2022-09-18T23:47:01.960Z,10.90
2022-09-18T23:49:30.144Z,10.90
2022-09-18T23:51:59.304Z,10.90
2022-09-18T23:54:28.747Z,10.90
2022-09-18T23:56:56.399Z,10.80
2022-09-18T23:59:24.886Z,10.80
